Terminal Aerodrome Forecast
Issued by NWS

Current Version | Previous Version | Text Only | Print | Product List | Glossary On
Versions: 1 2 3 4 5 6 7 8 9 10 11 12 13 14 15 16
000
FTPQ31 PGUM 192052 RRC
TAFGRO
TAF

TAF
PTPN 192052Z 1921/2018 07012KT P6SM VCSH SCT018 SCT040 BKN140
      TEMPO 1921/1924 -SHRA BKN016
     FM200000 06012G22KT P6SM VCSH FEW018 SCT050=

USA.gov is the U.S. government's official web portal to all federal, state and local government web resources and services.